createdAt,value
2022-11-05T00:00:34.865Z,100488.35
2022-11-05T00:03:27.987Z,100490.12
2022-11-05T00:06:15.348Z,100489.96
2022-11-05T00:09:02.569Z,100489.23
2022-11-05T00:11:49.790Z,100491.60
2022-11-05T00:14:37.102Z,100493.79
2022-11-05T00:17:05.602Z,100493.42
2022-11-05T00:19:34.394Z,100492.05
2022-11-05T00:22:21.408Z,100498.45
2022-11-05T00:25:08.624Z,100500.92
2022-11-05T00:27:37.003Z,100506.66
2022-11-05T00:30:07.430Z,100508.73
2022-11-05T00:32:38.066Z,100514.13
2022-11-05T00:35:07.365Z,100519.80
2022-11-05T00:37:36.357Z,100519.89
2022-11-05T00:40:05.308Z,100529.05
2022-11-05T00:42:52.267Z,100528.09
2022-11-05T00:45:21.365Z,100530.66
2022-11-05T00:48:08.381Z,100530.56
2022-11-05T00:50:37.271Z,100526.02
2022-11-05T00:53:05.652Z,100529.42
2022-11-05T00:55:35.877Z,100528.67
2022-11-05T00:58:06.406Z,100532.30
2022-11-05T01:00:35.875Z,100523.24
2022-11-05T01:03:05.625Z,100523.23
2022-11-05T01:05:35.127Z,100521.50
2022-11-05T01:08:03.815Z,100516.80
2022-11-05T01:10:32.500Z,100518.08
2022-11-05T01:13:00.885Z,100516.73
2022-11-05T01:15:29.464Z,100514.23
2022-11-05T01:17:58.153Z,100512.96
2022-11-05T01:20:27.115Z,100515.23
2022-11-05T01:22:55.628Z,100512.84
2022-11-05T01:25:24.211Z,100505.61
2022-11-05T01:27:52.489Z,100497.08
2022-11-05T01:30:21.176Z,100496.54
2022-11-05T01:32:49.863Z,100492.96
2022-11-05T01:35:18.755Z,100491.67
2022-11-05T01:37:47.441Z,100491.92
2022-11-05T01:40:17.509Z,100494.10
2022-11-05T01:42:45.940Z,100492.77
2022-11-05T01:45:14.325Z,100489.33
2022-11-05T01:47:56.588Z,100485.55
2022-11-05T01:50:27.980Z,100474.73
2022-11-05T01:53:02.871Z,100476.95
2022-11-05T01:55:33.760Z,100480.10
2022-11-05T01:58:03.458Z,100480.85
2022-11-05T02:00:31.940Z,100477.16
2022-11-05T02:03:00.561Z,100480.08
2022-11-05T02:05:29.194Z,100481.95
2022-11-05T02:07:57.998Z,100484.63
2022-11-05T02:10:26.583Z,100485.16
2022-11-05T02:12:55.373Z,100487.21
2022-11-05T02:15:37.064Z,100487.58
2022-11-05T02:18:23.985Z,100484.83
2022-11-05T02:20:55.125Z,100478.20
2022-11-05T02:23:26.747Z,100475.73
2022-11-05T02:25:58.230Z,100471.61
2022-11-05T02:28:45.043Z,100469.21
2022-11-05T02:31:28.285Z,100467.16
2022-11-05T02:34:03.613Z,100470.70
2022-11-05T02:36:32.611Z,100472.94
2022-11-05T02:39:12.661Z,100478.63
2022-11-05T02:41:48.925Z,100480.62
2022-11-05T02:44:17.100Z,100483.90
2022-11-05T02:46:48.757Z,100481.15
2022-11-05T02:49:27.991Z,100479.80
2022-11-05T02:52:02.616Z,100477.58
2022-11-05T02:54:37.039Z,100484.80
2022-11-05T02:57:06.136Z,100487.67
2022-11-05T02:59:34.617Z,100487.42
2022-11-05T03:02:04.194Z,100489.29
2022-11-05T03:04:33.118Z,100488.11
2022-11-05T03:07:07.641Z,100483.96
2022-11-05T03:09:38.989Z,100483.90
2022-11-05T03:12:07.164Z,100482.37
2022-11-05T03:14:35.646Z,100478.08
2022-11-05T03:17:07.301Z,100475.93
2022-11-05T03:20:01.807Z,100483.02
2022-11-05T03:22:35.396Z,100485.52
2022-11-05T03:25:08.999Z,100479.95
2022-11-05T03:27:39.631Z,100473.98
2022-11-05T03:30:09.594Z,100474.89
2022-11-05T03:32:42.594Z,100471.01
2022-11-05T03:35:16.751Z,100476.03
2022-11-05T03:37:47.587Z,100471.02
2022-11-05T03:40:17.503Z,100470.64
2022-11-05T03:42:50.179Z,100471.29
2022-11-05T03:45:21.020Z,100475.74
2022-11-05T03:47:52.218Z,100476.15
2022-11-05T03:50:25.463Z,100478.98
2022-11-05T03:52:56.297Z,100487.34
2022-11-05T03:55:28.467Z,100493.34
2022-11-05T03:57:58.563Z,100490.55
2022-11-05T04:00:27.070Z,100481.86
2022-11-05T04:02:55.882Z,100481.18
2022-11-05T04:05:24.242Z,100477.23
2022-11-05T04:08:14.407Z,100478.68
2022-11-05T04:11:02.160Z,100476.55
2022-11-05T04:13:31.053Z,100478.70
2022-11-05T04:16:18.275Z,100478.50
2022-11-05T04:18:47.066Z,100477.80
2022-11-05T04:21:34.081Z,100478.79
2022-11-05T04:24:08.618Z,100480.23
2022-11-05T04:26:39.036Z,100484.11
2022-11-05T04:29:26.460Z,100484.20
2022-11-05T04:31:55.048Z,100485.44
2022-11-05T04:34:23.831Z,100486.23
2022-11-05T04:36:53.438Z,100487.98
2022-11-05T04:39:21.989Z,100489.89
2022-11-05T04:41:50.710Z,100495.02
2022-11-05T04:44:19.090Z,100497.24
2022-11-05T04:46:47.369Z,100498.31
2022-11-05T04:49:16.262Z,100499.55
2022-11-05T04:51:44.744Z,100499.48
2022-11-05T04:54:13.222Z,100509.28
2022-11-05T04:56:42.011Z,100513.94
2022-11-05T04:59:10.554Z,100508.13
2022-11-05T05:01:39.066Z,100506.60
2022-11-05T05:04:07.662Z,100508.70
2022-11-05T05:06:36.861Z,100508.61
2022-11-05T05:09:05.343Z,100508.98
2022-11-05T05:11:33.752Z,100511.41
2022-11-05T05:14:02.206Z,100515.42
2022-11-05T05:16:30.788Z,100519.95
2022-11-05T05:18:59.376Z,100518.38
2022-11-05T05:21:40.676Z,100517.58
2022-11-05T05:24:13.849Z,100515.59
2022-11-05T05:26:44.179Z,100516.33
2022-11-05T05:29:13.066Z,100508.98
2022-11-05T05:31:41.444Z,100504.05
2022-11-05T05:34:14.296Z,100507.36
2022-11-05T05:36:42.914Z,100507.63
2022-11-05T05:39:11.506Z,100512.08
2022-11-05T05:41:39.776Z,100524.52
2022-11-05T05:44:08.363Z,100535.90
2022-11-05T05:46:36.846Z,100544.73
2022-11-05T05:49:11.070Z,100539.46
2022-11-05T05:51:40.973Z,100534.91
2022-11-05T05:54:10.789Z,100533.59
2022-11-05T05:56:39.270Z,100538.54
2022-11-05T05:59:08.272Z,100549.17
2022-11-05T06:01:37.090Z,100552.20
2022-11-05T06:04:05.738Z,100554.59
2022-11-05T06:06:34.375Z,100551.41
2022-11-05T06:09:02.584Z,100556.58
2022-11-05T06:11:31.299Z,100567.48
2022-11-05T06:13:59.704Z,100572.98
2022-11-05T06:16:28.866Z,100578.23
2022-11-05T06:18:57.556Z,100579.80
2022-11-05T06:21:26.138Z,100581.35
2022-11-05T06:23:54.517Z,100588.02
2022-11-05T06:26:23.105Z,100590.88
2022-11-05T06:28:52.059Z,100592.50
2022-11-05T06:31:21.705Z,100594.02
2022-11-05T06:33:50.287Z,100588.16
2022-11-05T06:36:19.590Z,100590.73
2022-11-05T06:38:47.971Z,100599.86
2022-11-05T06:41:16.246Z,100602.79
2022-11-05T06:43:44.905Z,100602.67
2022-11-05T06:46:13.415Z,100597.91
2022-11-05T06:48:41.692Z,100598.89
2022-11-05T06:51:10.278Z,100597.82
2022-11-05T06:53:38.861Z,100591.69
2022-11-05T06:56:07.915Z,100582.45
2022-11-05T06:58:36.644Z,100576.20
2022-11-05T07:01:08.121Z,100569.81
2022-11-05T07:03:37.193Z,100570.73
2022-11-05T07:06:06.777Z,100565.05
2022-11-05T07:08:35.903Z,100562.53
2022-11-05T07:11:04.584Z,100564.19
2022-11-05T07:13:33.272Z,100567.01
2022-11-05T07:16:01.755Z,100568.13
2022-11-05T07:18:30.136Z,100573.96
2022-11-05T07:20:59.727Z,100574.75
2022-11-05T07:23:28.239Z,100569.39
2022-11-05T07:25:56.503Z,100565.77
2022-11-05T07:28:24.882Z,100570.20
2022-11-05T07:30:54.560Z,100574.70
2022-11-05T07:33:23.076Z,100578.17
2022-11-05T07:35:51.456Z,100584.96
2022-11-05T07:38:20.040Z,100590.64
2022-11-05T07:40:48.481Z,100588.77
2022-11-05T07:43:16.918Z,100591.84
2022-11-05T07:45:45.693Z,100590.04
2022-11-05T07:48:14.072Z,100593.78
2022-11-05T07:50:42.352Z,100599.02
2022-11-05T07:53:14.732Z,100596.09
2022-11-05T07:55:44.330Z,100596.20
2022-11-05T07:58:12.987Z,100591.38
2022-11-05T08:00:41.539Z,100592.60
2022-11-05T08:03:17.359Z,100589.08
2022-11-05T08:05:48.004Z,100589.30
2022-11-05T08:08:17.904Z,100587.66
2022-11-05T08:10:46.704Z,100587.85
2022-11-05T08:13:15.553Z,100590.95
2022-11-05T08:15:44.684Z,100594.14
2022-11-05T08:18:14.498Z,100592.35
2022-11-05T08:20:43.390Z,100584.73
2022-11-05T08:23:12.254Z,100578.98
2022-11-05T08:25:41.589Z,100575.38
2022-11-05T08:28:13.776Z,100578.20
2022-11-05T08:30:42.660Z,100579.52
2022-11-05T08:33:12.528Z,100578.91
2022-11-05T08:35:41.351Z,100577.94
2022-11-05T08:38:11.059Z,100575.94
2022-11-05T08:40:40.156Z,100581.42
2022-11-05T08:43:10.293Z,100584.27
2022-11-05T08:45:38.964Z,100584.49
2022-11-05T08:48:08.572Z,100587.11
2022-11-05T08:50:37.669Z,100583.39
2022-11-05T08:53:06.458Z,100586.54
2022-11-05T08:55:35.116Z,100586.77
2022-11-05T08:58:04.859Z,100580.80
2022-11-05T09:00:35.182Z,100576.70
2022-11-05T09:03:04.944Z,100573.03
2022-11-05T09:05:38.304Z,100568.83
2022-11-05T09:08:07.770Z,100564.69
2022-11-05T09:10:36.486Z,100566.39
2022-11-05T09:13:04.813Z,100564.98
2022-11-05T09:15:34.065Z,100564.11
2022-11-05T09:18:08.626Z,100563.19
2022-11-05T09:20:37.074Z,100564.73
2022-11-05T09:23:05.452Z,100564.66
2022-11-05T09:25:34.139Z,100563.00
2022-11-05T09:28:12.280Z,100559.81
2022-11-05T09:30:44.026Z,100558.23
2022-11-05T09:33:13.245Z,100557.20
2022-11-05T09:35:42.199Z,100558.50
2022-11-05T09:38:11.092Z,100551.21
2022-11-05T09:40:57.802Z,100549.52
2022-11-05T09:43:46.355Z,100548.74
2022-11-05T09:46:23.953Z,100541.67
2022-11-05T09:48:54.636Z,100539.08
2022-11-05T09:51:24.284Z,100536.20
2022-11-05T09:53:54.112Z,100537.31
2022-11-05T09:56:27.516Z,100533.67
2022-11-05T09:59:01.213Z,100530.51
2022-11-05T10:01:32.768Z,100523.29
2022-11-05T10:04:03.131Z,100524.85
2022-11-05T10:06:31.881Z,100526.71
2022-11-05T10:09:02.983Z,100526.69
2022-11-05T10:11:38.268Z,100528.82
2022-11-05T10:14:10.948Z,100528.48
2022-11-05T10:16:44.141Z,100530.27
2022-11-05T10:19:22.352Z,100533.42
2022-11-05T10:22:09.912Z,100538.38
2022-11-05T10:24:41.099Z,100538.76
2022-11-05T10:27:15.042Z,100539.85
2022-11-05T10:29:43.725Z,100539.09
2022-11-05T10:32:17.842Z,100537.55
2022-11-05T10:34:46.425Z,100533.97
2022-11-05T10:37:14.908Z,100533.11
2022-11-05T10:39:43.596Z,100530.59
2022-11-05T10:42:11.976Z,100527.10
2022-11-05T10:44:49.491Z,100524.77
2022-11-05T10:47:36.795Z,100518.90
2022-11-05T10:50:10.015Z,100514.36
2022-11-05T10:52:40.462Z,100514.30
2022-11-05T10:55:21.903Z,100518.77
2022-11-05T10:57:50.693Z,100518.56
2022-11-05T11:00:23.684Z,100510.82
2022-11-05T11:02:54.108Z,100507.41
2022-11-05T11:05:28.633Z,100507.54
2022-11-05T11:08:02.007Z,100507.10
2022-11-05T11:10:33.074Z,100507.61
2022-11-05T11:13:01.456Z,100503.95
2022-11-05T11:15:35.466Z,100499.74
2022-11-05T11:18:22.791Z,100500.27
2022-11-05T11:20:51.683Z,100496.64
2022-11-05T11:23:20.166Z,100494.79
2022-11-05T11:25:51.618Z,100497.38
2022-11-05T11:28:40.379Z,100491.29
2022-11-05T11:31:08.858Z,100494.91
2022-11-05T11:33:38.379Z,100493.52
2022-11-05T11:36:07.007Z,100496.77
2022-11-05T11:38:37.142Z,100496.73
2022-11-05T11:41:16.996Z,100496.03
2022-11-05T11:43:46.530Z,100493.46
2022-11-05T11:46:16.753Z,100492.57
2022-11-05T11:48:47.766Z,100491.70
2022-11-05T11:51:30.715Z,100491.59
2022-11-05T11:53:59.861Z,100488.09
2022-11-05T11:56:29.223Z,100486.27
2022-11-05T11:58:58.314Z,100484.08
2022-11-05T12:01:32.902Z,100487.30
2022-11-05T12:04:21.703Z,100488.88
2022-11-05T12:06:59.499Z,100488.70
2022-11-05T12:09:46.558Z,100483.27
2022-11-05T12:12:16.331Z,100485.04
2022-11-05T12:15:00.992Z,100484.29
2022-11-05T12:17:48.421Z,100487.82
2022-11-05T12:20:16.984Z,100488.33
2022-11-05T12:23:06.172Z,100485.52
2022-11-05T12:25:40.491Z,100488.29
2022-11-05T12:28:08.872Z,100488.51
2022-11-05T12:31:03.568Z,100494.64
2022-11-05T12:33:38.656Z,100498.25
2022-11-05T12:36:07.393Z,100501.19
2022-11-05T12:38:44.684Z,100498.80
2022-11-05T12:41:28.217Z,100498.23
2022-11-05T12:44:06.228Z,100497.62
2022-11-05T12:46:44.127Z,100499.94
2022-11-05T12:49:31.151Z,100496.41
2022-11-05T12:52:23.384Z,100499.59
2022-11-05T12:55:24.123Z,100494.36
2022-11-05T12:57:54.263Z,100495.75
2022-11-05T13:00:24.160Z,100495.71
2022-11-05T13:03:05.232Z,100496.64
2022-11-05T13:05:39.557Z,100498.65
2022-11-05T13:08:10.906Z,100496.73
2022-11-05T13:10:51.997Z,100497.90
2022-11-05T13:13:29.581Z,100496.16
2022-11-05T13:16:24.691Z,100490.61
2022-11-05T13:18:56.549Z,100493.34
2022-11-05T13:21:26.477Z,100492.58
2022-11-05T13:24:33.450Z,100496.02
2022-11-05T13:27:25.074Z,100497.31
2022-11-05T13:29:57.125Z,100501.36
2022-11-05T13:32:31.562Z,100496.79
2022-11-05T13:35:02.047Z,100499.10
2022-11-05T13:37:59.043Z,100502.39
2022-11-05T13:40:42.170Z,100499.67
2022-11-05T13:43:30.815Z,100499.70
2022-11-05T13:46:18.149Z,100505.85
2022-11-05T13:48:46.734Z,100511.00
2022-11-05T13:51:27.401Z,100520.16
2022-11-05T13:53:55.887Z,100520.42
2022-11-05T13:56:39.829Z,100524.83
2022-11-05T13:59:23.878Z,100529.77
2022-11-05T14:01:57.333Z,100537.12
2022-11-05T14:04:25.965Z,100542.45
2022-11-05T14:07:04.888Z,100543.35
2022-11-05T14:09:34.754Z,100546.33
2022-11-05T14:12:05.264Z,100547.33
2022-11-05T14:14:42.419Z,100550.64
2022-11-05T14:17:11.152Z,100551.79
2022-11-05T14:19:59.761Z,100556.80
2022-11-05T14:22:31.463Z,100557.71
2022-11-05T14:25:00.618Z,100559.21
2022-11-05T14:27:28.791Z,100566.36
2022-11-05T14:29:57.478Z,100567.61
2022-11-05T14:32:27.846Z,100571.05
2022-11-05T14:35:19.123Z,100565.52
2022-11-05T14:37:47.810Z,100555.66
2022-11-05T14:40:22.129Z,100553.70
2022-11-05T14:42:55.833Z,100555.38
2022-11-05T14:45:30.055Z,100560.95
2022-11-05T14:48:00.632Z,100559.61
2022-11-05T14:50:34.916Z,100562.06
2022-11-05T14:53:13.036Z,100568.55
2022-11-05T14:55:42.840Z,100574.02
2022-11-05T14:58:26.870Z,100572.70
2022-11-05T15:00:55.897Z,100576.38
2022-11-05T15:03:35.133Z,100575.24
2022-11-05T15:06:03.482Z,100574.58
2022-11-05T15:08:51.930Z,100575.70
2022-11-05T15:11:20.109Z,100574.18
2022-11-05T15:13:54.935Z,100579.95
2022-11-05T15:16:23.211Z,100586.36
2022-11-05T15:18:53.832Z,100583.24
2022-11-05T15:21:22.530Z,100587.45
2022-11-05T15:23:54.233Z,100588.30
2022-11-05T15:26:26.560Z,100592.31
2022-11-05T15:28:55.758Z,100598.02
2022-11-05T15:31:45.646Z,100601.98
2022-11-05T15:34:18.871Z,100601.82
2022-11-05T15:36:51.968Z,100604.69
2022-11-05T15:39:30.211Z,100608.05
2022-11-05T15:42:01.422Z,100607.40
2022-11-05T15:44:31.327Z,100616.73
2022-11-05T15:47:06.847Z,100620.19
2022-11-05T15:49:35.843Z,100622.95
2022-11-05T15:52:05.059Z,100624.39
2022-11-05T15:54:33.644Z,100624.29
2022-11-05T15:57:02.656Z,100624.33
2022-11-05T15:59:31.471Z,100629.90
2022-11-05T16:02:19.511Z,100632.91
2022-11-05T16:04:48.854Z,100633.92
2022-11-05T16:07:17.744Z,100636.69
2022-11-05T16:09:59.852Z,100645.00
2022-11-05T16:12:33.052Z,100649.98
2022-11-05T16:15:10.439Z,100654.15
2022-11-05T16:17:46.600Z,100655.31
2022-11-05T16:20:34.920Z,100656.95
2022-11-05T16:23:07.416Z,100660.92
2022-11-05T16:25:36.532Z,100661.48
2022-11-05T16:28:06.738Z,100655.91
2022-11-05T16:30:35.017Z,100655.63
2022-11-05T16:33:04.819Z,100659.48
2022-11-05T16:35:33.820Z,100660.15
2022-11-05T16:38:03.240Z,100658.27
2022-11-05T16:40:31.504Z,100662.81
2022-11-05T16:43:09.711Z,100665.42
2022-11-05T16:45:41.454Z,100666.17
2022-11-05T16:48:12.030Z,100666.96
2022-11-05T16:50:40.995Z,100667.64
2022-11-05T16:53:09.682Z,100673.88
2022-11-05T16:55:39.344Z,100678.08
2022-11-05T16:58:14.890Z,100678.79
2022-11-05T17:00:43.319Z,100684.27
2022-11-05T17:03:12.010Z,100690.33
2022-11-05T17:05:40.448Z,100692.70
2022-11-05T17:08:09.385Z,100692.68
2022-11-05T17:10:38.171Z,100699.19
2022-11-05T17:13:06.550Z,100703.70
2022-11-05T17:15:37.802Z,100706.73
2022-11-05T17:18:06.183Z,100712.05
2022-11-05T17:20:40.726Z,100713.62
2022-11-05T17:23:12.188Z,100711.88
2022-11-05T17:25:41.302Z,100712.79
2022-11-05T17:28:10.219Z,100710.12
2022-11-05T17:30:41.473Z,100704.75
2022-11-05T17:33:11.489Z,100706.70
2022-11-05T17:35:40.911Z,100702.02
2022-11-05T17:38:10.483Z,100703.81
2022-11-05T17:40:39.481Z,100707.80
2022-11-05T17:43:07.807Z,100712.02
2022-11-05T17:45:41.469Z,100709.77
2022-11-05T17:48:10.696Z,100709.92
2022-11-05T17:50:42.823Z,100712.42
2022-11-05T17:53:11.975Z,100716.34
2022-11-05T17:55:41.893Z,100720.59
2022-11-05T17:58:10.972Z,100719.83
2022-11-05T18:00:40.078Z,100720.00
2022-11-05T18:03:10.076Z,100722.80
2022-11-05T18:05:40.212Z,100723.45
2022-11-05T18:08:09.203Z,100726.80
2022-11-05T18:10:38.104Z,100726.87
2022-11-05T18:13:06.882Z,100727.86
2022-11-05T18:15:36.589Z,100730.80
2022-11-05T18:18:04.972Z,100728.03
2022-11-05T18:20:33.658Z,100727.14
2022-11-05T18:23:02.552Z,100729.70
2022-11-05T18:25:31.137Z,100732.11
2022-11-05T18:27:59.620Z,100738.15
2022-11-05T18:30:27.996Z,100741.52
2022-11-05T18:32:56.786Z,100738.37
2022-11-05T18:35:25.165Z,100742.42
2022-11-05T18:37:53.544Z,100741.75
2022-11-05T18:40:22.230Z,100745.52
2022-11-05T18:42:50.610Z,100746.52
2022-11-05T18:45:18.888Z,100747.95
2022-11-05T18:47:47.883Z,100755.65
2022-11-05T18:50:16.568Z,100755.63
2022-11-05T18:52:44.949Z,100759.77
2022-11-05T18:55:13.738Z,100767.44
2022-11-05T18:57:42.184Z,100765.23
2022-11-05T19:00:10.906Z,100767.02
2022-11-05T19:02:39.511Z,100768.59
2022-11-05T19:05:28.051Z,100774.18
2022-11-05T19:07:57.550Z,100770.55
2022-11-05T19:10:26.007Z,100777.02
2022-11-05T19:12:54.726Z,100781.70
2022-11-05T19:15:23.200Z,100786.73
2022-11-05T19:17:51.786Z,100793.04
2022-11-05T19:20:20.165Z,100794.66
2022-11-05T19:22:48.852Z,100796.33
2022-11-05T19:25:17.539Z,100799.61
2022-11-05T19:27:45.919Z,100802.27
2022-11-05T19:30:14.711Z,100801.72
2022-11-05T19:32:42.991Z,100804.31
2022-11-05T19:35:11.469Z,100808.86
2022-11-05T19:37:40.259Z,100812.27
2022-11-05T19:40:09.150Z,100811.62
2022-11-05T19:42:37.425Z,100814.63
2022-11-05T19:45:30.401Z,100813.34
2022-11-05T19:47:55.075Z,100808.73
2022-11-05T19:50:23.879Z,100813.92
2022-11-05T19:52:52.245Z,100810.91
2022-11-05T19:55:20.932Z,100809.26
2022-11-05T19:57:49.415Z,100806.76
2022-11-05T20:00:17.996Z,100811.05
2022-11-05T20:02:46.923Z,100811.35
2022-11-05T20:05:15.783Z,100806.41
2022-11-05T20:07:49.663Z,100811.35
2022-11-05T20:10:21.629Z,100813.63
2022-11-05T20:12:50.041Z,100817.63
2022-11-05T20:15:19.951Z,100821.91
2022-11-05T20:17:50.183Z,100823.11
2022-11-05T20:20:19.063Z,100827.31
2022-11-05T20:22:47.344Z,100826.45
2022-11-05T20:25:16.233Z,100829.19
2022-11-05T20:27:44.717Z,100830.73
2022-11-05T20:30:13.299Z,100827.93
2022-11-05T20:32:41.678Z,100830.05
2022-11-05T20:35:10.374Z,100831.06
2022-11-05T20:37:38.846Z,100836.34
2022-11-05T20:40:07.636Z,100837.93
2022-11-05T20:42:36.427Z,100833.20
2022-11-05T20:45:05.010Z,100834.98
2022-11-05T20:47:33.710Z,100832.21
2022-11-05T20:50:04.227Z,100832.04
2022-11-05T20:52:33.634Z,100836.11
2022-11-05T20:55:02.626Z,100838.31
2022-11-05T20:57:31.005Z,100838.69
2022-11-05T20:59:59.588Z,100841.47
2022-11-05T21:02:28.553Z,100845.50
2022-11-05T21:04:56.953Z,100850.10
2022-11-05T21:07:25.342Z,100848.45
2022-11-05T21:09:53.930Z,100850.40
2022-11-05T21:12:23.437Z,100852.05
2022-11-05T21:14:52.635Z,100852.16
2022-11-05T21:17:21.217Z,100848.98
2022-11-05T21:19:49.699Z,100850.52
2022-11-05T21:22:18.283Z,100850.64
2022-11-05T21:24:46.867Z,100853.77
2022-11-05T21:27:15.460Z,100848.94
2022-11-05T21:29:43.831Z,100850.77
2022-11-05T21:32:12.415Z,100845.67
2022-11-05T21:34:40.898Z,100850.27
2022-11-05T21:37:09.242Z,100850.61
2022-11-05T21:39:37.787Z,100852.27
2022-11-05T21:42:06.036Z,100857.08
2022-11-05T21:44:34.622Z,100858.71
2022-11-05T21:47:04.747Z,100855.95
2022-11-05T21:49:34.554Z,100856.39
2022-11-05T21:52:21.951Z,100865.45
2022-11-05T21:55:09.099Z,100868.55
2022-11-05T21:57:56.520Z,100869.74
2022-11-05T22:00:25.009Z,100872.71
2022-11-05T22:02:53.816Z,100879.85
2022-11-05T22:05:22.177Z,100877.40
2022-11-05T22:07:50.967Z,100877.84
2022-11-05T22:10:19.448Z,100875.85
2022-11-05T22:12:47.931Z,100876.23
2022-11-05T22:15:16.723Z,100879.62
2022-11-05T22:17:47.119Z,100879.08
2022-11-05T22:20:16.449Z,100878.44
2022-11-05T22:22:45.120Z,100873.61
2022-11-05T22:25:14.537Z,100877.63
2022-11-05T22:27:44.113Z,100877.96
2022-11-05T22:30:12.888Z,100879.28
2022-11-05T22:32:41.555Z,100879.06
2022-11-05T22:35:10.009Z,100870.60
2022-11-05T22:37:38.386Z,100869.68
2022-11-05T22:40:07.172Z,100865.45
2022-11-05T22:42:35.602Z,100872.89
2022-11-05T22:45:04.240Z,100875.13
2022-11-05T22:47:32.720Z,100872.87
2022-11-05T22:50:01.571Z,100872.42
2022-11-05T22:52:30.163Z,100877.41
2022-11-05T22:54:58.681Z,100877.41
2022-11-05T22:57:27.524Z,100875.08
2022-11-05T22:59:56.155Z,100879.57
2022-11-05T23:02:24.775Z,100878.44
2022-11-05T23:04:53.118Z,100876.70
2022-11-05T23:07:40.545Z,100880.06
2022-11-05T23:10:27.825Z,100878.56
2022-11-05T23:12:56.364Z,100884.79
2022-11-05T23:15:43.984Z,100885.95
2022-11-05T23:18:30.615Z,100881.27
2022-11-05T23:21:21.984Z,100888.53
2022-11-05T23:24:06.984Z,100887.38
2022-11-05T23:26:52.263Z,100880.77
2022-11-05T23:29:21.959Z,100881.42
2022-11-05T23:32:09.804Z,100884.45
2022-11-05T23:34:39.000Z,100887.83
2022-11-05T23:37:26.836Z,100884.59
2022-11-05T23:39:55.420Z,100885.29
2022-11-05T23:42:42.337Z,100890.16
2022-11-05T23:45:29.762Z,100894.36
2022-11-05T23:48:16.960Z,100892.28
2022-11-05T23:50:47.212Z,100892.25
2022-11-05T23:53:15.995Z,100888.87
2022-11-05T23:55:44.589Z,100887.55
2022-11-05T23:58:13.138Z,100885.68
